sensor_id;sensor_type;location;lat;lon;timestamp;pressure;altitude;pressure_sealevel;temperature;humidity
28354;BME280;15603;50.878;8.036;2022-08-19T00:01:55;147605.34;;;18.33;94.10
28354;BME280;15603;50.878;8.036;2022-08-19T00:04:27;147588.22;;;18.25;94.78
28354;BME280;15603;50.878;8.036;2022-08-19T00:06:57;147588.22;;;18.25;94.52
28354;BME280;15603;50.878;8.036;2022-08-19T00:09:24;147561.34;;;18.14;95.57
28354;BME280;15603;50.878;8.036;2022-08-19T00:11:53;147566.25;;;18.16;95.24
28354;BME280;15603;50.878;8.036;2022-08-19T00:14:24;147554.06;;;18.11;95.98
28354;BME280;15603;50.878;8.036;2022-08-19T00:16:52;147568.69;;;18.17;95.63
28354;BME280;15603;50.878;8.036;2022-08-19T00:19:22;147585.81;;;18.24;95.67
28354;BME280;15603;50.878;8.036;2022-08-19T00:21:50;147594.31;;;18.28;95.22
28354;BME280;15603;50.878;8.036;2022-08-19T00:24:17;147577.25;;;18.21;96.20
28354;BME280;15603;50.878;8.036;2022-08-19T00:26:45;147589.44;;;18.26;95.47
28354;BME280;15603;50.878;8.036;2022-08-19T00:29:15;147590.69;;;18.27;95.11
28354;BME280;15603;50.878;8.036;2022-08-19T00:31:44;147596.78;;;18.29;94.66
28354;BME280;15603;50.878;8.036;2022-08-19T00:34:12;147593.13;;;18.28;95.12
28354;BME280;15603;50.878;8.036;2022-08-19T00:36:40;147598.00;;;18.30;94.69
28354;BME280;15603;50.878;8.036;2022-08-19T00:39:08;147551.59;;;18.10;95.13
28354;BME280;15603;50.878;8.036;2022-08-19T00:41:37;147502.72;;;17.90;95.31
28354;BME280;15603;50.878;8.036;2022-08-19T00:44:17;147576.00;;;18.20;95.49
28354;BME280;15603;50.878;8.036;2022-08-19T00:46:50;147576.00;;;18.20;95.60
28354;BME280;15603;50.878;8.036;2022-08-19T00:49:39;147585.81;;;18.24;95.80
28354;BME280;15603;50.878;8.036;2022-08-19T00:52:11;147600.47;;;18.31;95.50
28354;BME280;15603;50.878;8.036;2022-08-19T00:54:40;147505.19;;;17.91;96.01
28354;BME280;15603;50.878;8.036;2022-08-19T00:57:12;147551.59;;;18.10;96.64
28354;BME280;15603;50.878;8.036;2022-08-19T00:59:44;147562.56;;;18.15;96.35
28354;BME280;15603;50.878;8.036;2022-08-19T01:02:30;147523.50;;;17.98;96.89
28354;BME280;15603;50.878;8.036;2022-08-19T01:05:01;147512.53;;;17.94;97.44
28354;BME280;15603;50.878;8.036;2022-08-19T01:07:29;147523.50;;;17.98;97.03
28354;BME280;15603;50.878;8.036;2022-08-19T01:10:09;147528.38;;;18.00;96.56
28354;BME280;15603;50.878;8.036;2022-08-19T01:12:38;147512.53;;;17.94;96.95
28354;BME280;15603;50.878;8.036;2022-08-19T01:15:08;147505.19;;;17.91;96.80
28354;BME280;15603;50.878;8.036;2022-08-19T01:17:38;147500.28;;;17.89;97.30
28354;BME280;15603;50.878;8.036;2022-08-19T01:20:10;147444.09;;;17.65;97.39
28354;BME280;15603;50.878;8.036;2022-08-19T01:22:44;147489.28;;;17.84;97.62
28354;BME280;15603;50.878;8.036;2022-08-19T01:25:15;147461.16;;;17.72;98.79
28354;BME280;15603;50.878;8.036;2022-08-19T01:27:46;147458.72;;;17.71;98.20
28354;BME280;15603;50.878;8.036;2022-08-19T01:30:25;147453.84;;;17.69;98.25
28354;BME280;15603;50.878;8.036;2022-08-19T01:32:54;147451.38;;;17.68;98.29
28354;BME280;15603;50.878;8.036;2022-08-19T01:35:23;147439.22;;;17.63;97.95
28354;BME280;15603;50.878;8.036;2022-08-19T01:37:55;147423.31;;;17.56;98.92
28354;BME280;15603;50.878;8.036;2022-08-19T01:40:26;147429.41;;;17.59;99.12
28354;BME280;15603;50.878;8.036;2022-08-19T01:42:54;147384.25;;;17.40;98.83
28354;BME280;15603;50.878;8.036;2022-08-19T01:45:24;147397.66;;;17.45;99.36
28354;BME280;15603;50.878;8.036;2022-08-19T01:47:52;147389.13;;;17.42;100.00
28354;BME280;15603;50.878;8.036;2022-08-19T01:50:30;147407.47;;;17.50;99.90
28354;BME280;15603;50.878;8.036;2022-08-19T01:52:59;147411.06;;;17.51;99.91
28354;BME280;15603;50.878;8.036;2022-08-19T01:55:34;147395.22;;;17.44;99.69
28354;BME280;15603;50.878;8.036;2022-08-19T01:58:19;147385.47;;;17.40;99.41
28354;BME280;15603;50.878;8.036;2022-08-19T02:00:47;147381.78;;;17.39;100.00
28354;BME280;15603;50.878;8.036;2022-08-19T02:03:15;147385.47;;;17.40;100.00
28354;BME280;15603;50.878;8.036;2022-08-19T02:05:43;147365.94;;;17.32;100.00
28354;BME280;15603;50.878;8.036;2022-08-19T02:08:11;147331.72;;;17.18;100.00
28354;BME280;15603;50.878;8.036;2022-08-19T02:10:41;147343.97;;;17.23;100.00
28354;BME280;15603;50.878;8.036;2022-08-19T02:13:10;147339.06;;;17.21;100.00
28354;BME280;15603;50.878;8.036;2022-08-19T02:15:38;147337.81;;;17.20;100.00
28354;BME280;15603;50.878;8.036;2022-08-19T02:18:05;147319.50;;;17.13;100.00
28354;BME280;15603;50.878;8.036;2022-08-19T02:20:35;147315.88;;;17.11;100.00
28354;BME280;15603;50.878;8.036;2022-08-19T02:23:02;147226.72;;;16.74;100.00
28354;BME280;15603;50.878;8.036;2022-08-19T02:25:30;147312.22;;;17.10;100.00
28354;BME280;15603;50.878;8.036;2022-08-19T02:27:57;147307.34;;;17.07;100.00
28354;BME280;15603;50.878;8.036;2022-08-19T02:30:25;147321.97;;;17.14;100.00
28354;BME280;15603;50.878;8.036;2022-08-19T02:32:52;147304.88;;;17.06;100.00
28354;BME280;15603;50.878;8.036;2022-08-19T02:35:20;147273.13;;;16.93;100.00
28354;BME280;15603;50.878;8.036;2022-08-19T02:37:47;147297.56;;;17.03;100.00
28354;BME280;15603;50.878;8.036;2022-08-19T02:40:33;147260.97;;;16.88;100.00
28354;BME280;15603;50.878;8.036;2022-08-19T02:43:03;147271.94;;;16.93;100.00
28354;BME280;15603;50.878;8.036;2022-08-19T02:45:33;147270.72;;;16.92;100.00
28354;BME280;15603;50.878;8.036;2022-08-19T02:48:01;147260.97;;;16.88;100.00
28354;BME280;15603;50.878;8.036;2022-08-19T02:50:39;147258.50;;;16.87;100.00
28354;BME280;15603;50.878;8.036;2022-08-19T02:53:19;147263.38;;;16.89;100.00
28354;BME280;15603;50.878;8.036;2022-08-19T02:55:46;147236.47;;;16.78;100.00
28354;BME280;15603;50.878;8.036;2022-08-19T02:58:14;147248.75;;;16.83;100.00
28354;BME280;15603;50.878;8.036;2022-08-19T03:00:47;147236.47;;;16.78;100.00
28354;BME280;15603;50.878;8.036;2022-08-19T03:03:16;147216.97;;;16.69;100.00
28354;BME280;15603;50.878;8.036;2022-08-19T03:05:44;147204.72;;;16.64;100.00
28354;BME280;15603;50.878;8.036;2022-08-19T03:08:22;147214.50;;;16.68;100.00
28354;BME280;15603;50.878;8.036;2022-08-19T03:10:49;147194.97;;;16.60;100.00
28354;BME280;15603;50.878;8.036;2022-08-19T03:13:18;147180.34;;;16.54;100.00
28354;BME280;15603;50.878;8.036;2022-08-19T03:15:47;147085.16;;;16.14;100.00
28354;BME280;15603;50.878;8.036;2022-08-19T03:18:15;147190.09;;;16.58;100.00
28354;BME280;15603;50.878;8.036;2022-08-19T03:20:46;147197.44;;;16.61;100.00
28354;BME280;15603;50.878;8.036;2022-08-19T03:23:14;147177.88;;;16.53;100.00
28354;BME280;15603;50.878;8.036;2022-08-19T03:25:44;147112.00;;;16.25;100.00
28354;BME280;15603;50.878;8.036;2022-08-19T03:28:14;147131.53;;;16.34;100.00
28354;BME280;15603;50.878;8.036;2022-08-19T03:30:43;147142.53;;;16.38;100.00
28354;BME280;15603;50.878;8.036;2022-08-19T03:33:10;147138.84;;;16.37;100.00
28354;BME280;15603;50.878;8.036;2022-08-19T03:35:44;147126.66;;;16.32;100.00
28354;BME280;15603;50.878;8.036;2022-08-19T03:38:11;147155.97;;;16.44;100.00
28354;BME280;15603;50.878;8.036;2022-08-19T03:40:39;147129.09;;;16.33;100.00
28354;BME280;15603;50.878;8.036;2022-08-19T03:43:06;147125.44;;;16.31;100.00
28354;BME280;15603;50.878;8.036;2022-08-19T03:45:33;147116.88;;;16.27;100.00
28354;BME280;15603;50.878;8.036;2022-08-19T03:48:00;147109.59;;;16.24;100.00
28354;BME280;15603;50.878;8.036;2022-08-19T03:50:27;147112.00;;;16.25;100.00
28354;BME280;15603;50.878;8.036;2022-08-19T03:52:54;147094.91;;;16.18;100.00
28354;BME280;15603;50.878;8.036;2022-08-19T03:55:21;147092.50;;;16.17;100.00
28354;BME280;15603;50.878;8.036;2022-08-19T03:57:48;147080.28;;;16.12;100.00
28354;BME280;15603;50.878;8.036;2022-08-19T04:00:15;146976.59;;;15.68;100.00
28354;BME280;15603;50.878;8.036;2022-08-19T04:02:43;147080.28;;;16.12;100.00
28354;BME280;15603;50.878;8.036;2022-08-19T04:05:27;147065.66;;;16.06;100.00
28354;BME280;15603;50.878;8.036;2022-08-19T04:07:55;147026.59;;;15.89;100.00
28354;BME280;15603;50.878;8.036;2022-08-19T04:10:27;147051.03;;;16.00;100.00
28354;BME280;15603;50.878;8.036;2022-08-19T04:12:55;147037.59;;;15.94;100.00
28354;BME280;15603;50.878;8.036;2022-08-19T04:15:22;147033.94;;;15.93;100.00
28354;BME280;15603;50.878;8.036;2022-08-19T04:17:49;147021.72;;;15.87;100.00
28354;BME280;15603;50.878;8.036;2022-08-19T04:20:16;147038.81;;;15.95;100.00
28354;BME280;15603;50.878;8.036;2022-08-19T04:22:43;147044.91;;;15.97;100.00
28354;BME280;15603;50.878;8.036;2022-08-19T04:25:10;147021.72;;;15.87;100.00
28354;BME280;15603;50.878;8.036;2022-08-19T04:27:37;147009.56;;;15.82;100.00
28354;BME280;15603;50.878;8.036;2022-08-19T04:30:05;147007.09;;;15.81;100.00
28354;BME280;15603;50.878;8.036;2022-08-19T04:32:32;146938.75;;;15.52;100.00
28354;BME280;15603;50.878;8.036;2022-08-19T04:34:59;147030.28;;;15.91;100.00
28354;BME280;15603;50.878;8.036;2022-08-19T04:37:42;147019.31;;;15.86;100.00
28354;BME280;15603;50.878;8.036;2022-08-19T04:40:09;147033.94;;;15.93;100.00
28354;BME280;15603;50.878;8.036;2022-08-19T04:42:55;147047.38;;;15.98;100.00
28354;BME280;15603;50.878;8.036;2022-08-19T04:45:23;147014.44;;;15.84;100.00
28354;BME280;15603;50.878;8.036;2022-08-19T04:47:54;147011.97;;;15.83;100.00
28354;BME280;15603;50.878;8.036;2022-08-19T04:50:44;146931.47;;;15.49;100.00
28354;BME280;15603;50.878;8.036;2022-08-19T04:53:11;147048.56;;;15.99;100.00
28354;BME280;15603;50.878;8.036;2022-08-19T04:55:42;146952.16;;;15.58;100.00
28354;BME280;15603;50.878;8.036;2022-08-19T04:58:09;147031.47;;;15.92;100.00
28354;BME280;15603;50.878;8.036;2022-08-19T05:00:38;147004.69;;;15.80;100.00
28354;BME280;15603;50.878;8.036;2022-08-19T05:03:07;147021.72;;;15.87;100.00
28354;BME280;15603;50.878;8.036;2022-08-19T05:05:39;147025.41;;;15.89;100.00
28354;BME280;15603;50.878;8.036;2022-08-19T05:08:16;147019.31;;;15.86;100.00
28354;BME280;15603;50.878;8.036;2022-08-19T05:10:57;147046.16;;;15.98;100.00
28354;BME280;15603;50.878;8.036;2022-08-19T05:13:25;147080.28;;;16.12;100.00
28354;BME280;15603;50.878;8.036;2022-08-19T05:15:55;147070.53;;;16.08;100.00
28354;BME280;15603;50.878;8.036;2022-08-19T05:18:23;147097.38;;;16.19;100.00
28354;BME280;15603;50.878;8.036;2022-08-19T05:21:11;147112.00;;;16.25;100.00
28354;BME280;15603;50.878;8.036;2022-08-19T05:23:57;147113.22;;;16.26;100.00
28354;BME280;15603;50.878;8.036;2022-08-19T05:26:25;147092.50;;;16.17;100.00
28354;BME280;15603;50.878;8.036;2022-08-19T05:28:55;147175.47;;;16.52;100.00
28354;BME280;15603;50.878;8.036;2022-08-19T05:31:22;147155.97;;;16.44;100.00
28354;BME280;15603;50.878;8.036;2022-08-19T05:33:49;147163.25;;;16.47;100.00
28354;BME280;15603;50.878;8.036;2022-08-19T05:36:16;147192.56;;;16.59;100.00
28354;BME280;15603;50.878;8.036;2022-08-19T05:38:46;147284.16;;;16.98;100.00
28354;BME280;15603;50.878;8.036;2022-08-19T05:41:14;147296.31;;;17.03;99.14
28354;BME280;15603;50.878;8.036;2022-08-19T05:43:42;147304.88;;;17.06;98.52
28354;BME280;15603;50.878;8.036;2022-08-19T05:46:16;147334.19;;;17.19;97.60
28354;BME280;15603;50.878;8.036;2022-08-19T05:48:54;147332.94;;;17.18;97.98
28354;BME280;15603;50.878;8.036;2022-08-19T05:51:24;147331.72;;;17.18;98.04
28354;BME280;15603;50.878;8.036;2022-08-19T05:53:55;147323.19;;;17.14;98.60
28354;BME280;15603;50.878;8.036;2022-08-19T05:56:22;147268.25;;;16.91;99.95
28354;BME280;15603;50.878;8.036;2022-08-19T05:58:49;147292.69;;;17.01;100.00
28354;BME280;15603;50.878;8.036;2022-08-19T06:01:18;147296.31;;;17.03;99.75
28354;BME280;15603;50.878;8.036;2022-08-19T06:03:45;147270.72;;;16.92;100.00
28354;BME280;15603;50.878;8.036;2022-08-19T06:06:14;147290.22;;;17.00;100.00
28354;BME280;15603;50.878;8.036;2022-08-19T06:08:42;147280.47;;;16.96;100.00
28354;BME280;15603;50.878;8.036;2022-08-19T06:11:28;147302.47;;;17.05;100.00
28354;BME280;15603;50.878;8.036;2022-08-19T06:14:03;147337.81;;;17.20;100.00
28354;BME280;15603;50.878;8.036;2022-08-19T06:16:30;147343.97;;;17.23;99.86
28354;BME280;15603;50.878;8.036;2022-08-19T06:19:03;147265.84;;;16.90;100.00
28354;BME280;15603;50.878;8.036;2022-08-19T06:21:30;147328.06;;;17.16;99.95
28354;BME280;15603;50.878;8.036;2022-08-19T06:23:57;147347.63;;;17.24;99.20
28354;BME280;15603;50.878;8.036;2022-08-19T06:26:25;147375.72;;;17.36;98.63
28354;BME280;15603;50.878;8.036;2022-08-19T06:28:53;147385.47;;;17.40;98.67
28354;BME280;15603;50.878;8.036;2022-08-19T06:31:23;147342.72;;;17.22;98.36
28354;BME280;15603;50.878;8.036;2022-08-19T06:33:51;147472.16;;;17.77;97.31
28354;BME280;15603;50.878;8.036;2022-08-19T06:36:21;147483.13;;;17.81;97.32
28354;BME280;15603;50.878;8.036;2022-08-19T06:38:51;147534.47;;;18.03;95.92
28354;BME280;15603;50.878;8.036;2022-08-19T06:41:18;147585.81;;;18.24;95.59
28354;BME280;15603;50.878;8.036;2022-08-19T06:43:46;147637.13;;;18.46;93.80
28354;BME280;15603;50.878;8.036;2022-08-19T06:46:15;147651.75;;;18.52;93.23
28354;BME280;15603;50.878;8.036;2022-08-19T06:48:43;147674.97;;;18.62;93.50
28354;BME280;15603;50.878;8.036;2022-08-19T06:51:14;147685.97;;;18.67;93.27
28354;BME280;15603;50.878;8.036;2022-08-19T06:53:49;147732.47;;;18.86;93.47
28354;BME280;15603;50.878;8.036;2022-08-19T06:56:20;147734.91;;;18.87;92.93
28354;BME280;15603;50.878;8.036;2022-08-19T06:58:47;147710.44;;;18.77;93.18
28354;BME280;15603;50.878;8.036;2022-08-19T07:01:19;147754.44;;;18.95;93.10
28354;BME280;15603;50.878;8.036;2022-08-19T07:03:46;147778.91;;;19.06;91.77
28354;BME280;15603;50.878;8.036;2022-08-19T07:06:17;147804.56;;;19.16;91.72
28354;BME280;15603;50.878;8.036;2022-08-19T07:09:06;147770.34;;;19.02;92.08
28354;BME280;15603;50.878;8.036;2022-08-19T07:11:33;147769.16;;;19.01;92.46
28354;BME280;15603;50.878;8.036;2022-08-19T07:14:01;147759.31;;;18.97;92.20
28354;BME280;15603;50.878;8.036;2022-08-19T07:16:29;147698.19;;;18.72;92.08
28354;BME280;15603;50.878;8.036;2022-08-19T07:18:57;147771.56;;;19.02;92.15
28354;BME280;15603;50.878;8.036;2022-08-19T07:21:27;147844.91;;;19.33;90.57
28354;BME280;15603;50.878;8.036;2022-08-19T07:23:59;147866.91;;;19.42;90.17
28354;BME280;15603;50.878;8.036;2022-08-19T07:26:35;147923.16;;;19.66;89.36
28354;BME280;15603;50.878;8.036;2022-08-19T07:29:09;147957.44;;;19.80;88.72
28354;BME280;15603;50.878;8.036;2022-08-19T07:31:37;147994.13;;;19.96;87.90
28354;BME280;15603;50.878;8.036;2022-08-19T07:34:06;148160.50;;;20.66;86.40
28354;BME280;15603;50.878;8.036;2022-08-19T07:36:35;148198.44;;;20.82;86.03
28354;BME280;15603;50.878;8.036;2022-08-19T07:39:07;148299.97;;;21.24;83.90
28354;BME280;15603;50.878;8.036;2022-08-19T07:41:38;148322.03;;;21.33;83.24
28354;BME280;15603;50.878;8.036;2022-08-19T07:44:07;148368.56;;;21.53;83.27
28354;BME280;15603;50.878;8.036;2022-08-19T07:46:37;148341.59;;;21.42;82.04
28354;BME280;15603;50.878;8.036;2022-08-19T07:49:07;148410.19;;;21.70;80.68
28354;BME280;15603;50.878;8.036;2022-08-19T07:51:35;148395.50;;;21.64;81.33
28354;BME280;15603;50.878;8.036;2022-08-19T07:54:03;148399.19;;;21.66;82.09
28354;BME280;15603;50.878;8.036;2022-08-19T07:56:30;148404.09;;;21.68;81.92
28354;BME280;15603;50.878;8.036;2022-08-19T07:58:57;148371.03;;;21.54;83.68
28354;BME280;15603;50.878;8.036;2022-08-19T08:01:26;148318.34;;;21.32;84.04
28354;BME280;15603;50.878;8.036;2022-08-19T08:03:56;148347.78;;;21.44;83.77
28354;BME280;15603;50.878;8.036;2022-08-19T08:06:42;148358.78;;;21.49;83.90
28354;BME280;15603;50.878;8.036;2022-08-19T08:09:35;148385.72;;;21.60;84.12
28354;BME280;15603;50.878;8.036;2022-08-19T08:12:12;148356.31;;;21.48;83.71
28354;BME280;15603;50.878;8.036;2022-08-19T08:15:05;148397.97;;;21.65;83.78
28354;BME280;15603;50.878;8.036;2022-08-19T08:17:38;148397.97;;;21.65;83.98
28354;BME280;15603;50.878;8.036;2022-08-19T08:20:18;148439.59;;;21.83;82.85
28354;BME280;15603;50.878;8.036;2022-08-19T08:22:46;148464.06;;;21.93;83.08
28354;BME280;15603;50.878;8.036;2022-08-19T08:25:33;148552.25;;;22.30;81.86
28354;BME280;15603;50.878;8.036;2022-08-19T08:28:02;148652.69;;;22.72;79.92
28354;BME280;15603;50.878;8.036;2022-08-19T08:30:31;148664.97;;;22.77;80.32
28354;BME280;15603;50.878;8.036;2022-08-19T08:33:00;148629.41;;;22.62;79.83
28354;BME280;15603;50.878;8.036;2022-08-19T08:35:28;148645.31;;;22.69;80.95
28354;BME280;15603;50.878;8.036;2022-08-19T08:37:57;148711.50;;;22.97;80.28
28354;BME280;15603;50.878;8.036;2022-08-19T08:40:47;148755.63;;;23.15;78.60
28354;BME280;15603;50.878;8.036;2022-08-19T08:43:24;148701.72;;;22.92;79.15
28354;BME280;15603;50.878;8.036;2022-08-19T08:46:04;148782.59;;;23.26;78.42
28354;BME280;15603;50.878;8.036;2022-08-19T08:48:44;148834.03;;;23.48;77.01
28354;BME280;15603;50.878;8.036;2022-08-19T08:51:23;148829.13;;;23.46;76.55
28354;BME280;15603;50.878;8.036;2022-08-19T08:53:56;148818.13;;;23.41;74.71
28354;BME280;15603;50.878;8.036;2022-08-19T08:56:25;148805.84;;;23.36;74.35
28354;BME280;15603;50.878;8.036;2022-08-19T08:58:59;148902.66;;;23.77;73.27
28354;BME280;15603;50.878;8.036;2022-08-19T09:01:29;148868.38;;;23.62;73.96
28354;BME280;15603;50.878;8.036;2022-08-19T09:03:57;148897.75;;;23.75;74.06
28354;BME280;15603;50.878;8.036;2022-08-19T09:09:14;148799.75;;;23.33;73.54
28354;BME280;15603;50.878;8.036;2022-08-19T09:14:47;148905.13;;;23.78;72.54
28354;BME280;15603;50.878;8.036;2022-08-19T09:17:24;148988.53;;;24.13;71.79
28354;BME280;15603;50.878;8.036;2022-08-19T09:22:31;148973.81;;;24.06;67.31
28354;BME280;15603;50.878;8.036;2022-08-19T09:24:59;149008.13;;;24.21;68.56
28354;BME280;15603;50.878;8.036;2022-08-19T09:27:27;149091.53;;;24.56;66.71
28354;BME280;15603;50.878;8.036;2022-08-19T09:30:19;148995.91;;;24.16;65.06
28354;BME280;15603;50.878;8.036;2022-08-19T09:32:46;149064.56;;;24.44;64.03
28354;BME280;15603;50.878;8.036;2022-08-19T09:35:24;149053.50;;;24.40;64.07
28354;BME280;15603;50.878;8.036;2022-08-19T09:37:55;149147.97;;;24.79;64.00
28354;BME280;15603;50.878;8.036;2022-08-19T09:40:29;149165.09;;;24.86;62.72
28354;BME280;15603;50.878;8.036;2022-08-19T09:43:03;149174.97;;;24.91;61.22
28354;BME280;15603;50.878;8.036;2022-08-19T09:45:39;149140.59;;;24.76;62.06
28354;BME280;15603;50.878;8.036;2022-08-19T09:48:06;149128.31;;;24.71;62.71
28354;BME280;15603;50.878;8.036;2022-08-19T09:50:35;149027.78;;;24.29;63.36
28354;BME280;15603;50.878;8.036;2022-08-19T09:53:18;149021.63;;;24.26;61.87
28354;BME280;15603;50.878;8.036;2022-08-19T09:55:45;149154.09;;;24.82;60.83
28354;BME280;15603;50.878;8.036;2022-08-19T09:58:13;149116.09;;;24.66;60.36
28354;BME280;15603;50.878;8.036;2022-08-19T10:00:40;149096.47;;;24.58;59.79
28354;BME280;15603;50.878;8.036;2022-08-19T10:03:07;149189.66;;;24.97;59.31
28354;BME280;15603;50.878;8.036;2022-08-19T10:05:34;149242.38;;;25.19;57.45
28354;BME280;15603;50.878;8.036;2022-08-19T10:08:32;149339.34;;;25.59;55.90
28354;BME280;15603;50.878;8.036;2022-08-19T10:11:01;149344.22;;;25.61;54.91
28354;BME280;15603;50.878;8.036;2022-08-19T10:13:48;149309.91;;;25.47;55.36
28354;BME280;15603;50.878;8.036;2022-08-19T10:16:19;149273.09;;;25.32;55.72
28354;BME280;15603;50.878;8.036;2022-08-19T10:18:52;149226.44;;;25.12;55.57
28354;BME280;15603;50.878;8.036;2022-08-19T10:21:27;149241.16;;;25.18;54.75
28354;BME280;15603;50.878;8.036;2022-08-19T10:24:00;149206.84;;;25.04;54.51
28354;BME280;15603;50.878;8.036;2022-08-19T10:26:33;149336.91;;;25.58;54.39
28354;BME280;15603;50.878;8.036;2022-08-19T10:29:02;149308.69;;;25.46;53.01
28354;BME280;15603;50.878;8.036;2022-08-19T10:31:33;149322.19;;;25.52;54.54
28354;BME280;15603;50.878;8.036;2022-08-19T10:34:20;149354.09;;;25.65;52.57
28354;BME280;15603;50.878;8.036;2022-08-19T10:36:54;149409.31;;;25.89;52.01
28354;BME280;15603;50.878;8.036;2022-08-19T10:39:34;149427.75;;;25.96;51.42
28354;BME280;15603;50.878;8.036;2022-08-19T10:42:09;149458.41;;;26.09;51.66
28354;BME280;15603;50.878;8.036;2022-08-19T10:44:41;149403.13;;;25.86;51.56
28354;BME280;15603;50.878;8.036;2022-08-19T10:47:08;149435.09;;;25.99;52.51
28354;BME280;15603;50.878;8.036;2022-08-19T10:49:51;149444.91;;;26.03;51.82
28354;BME280;15603;50.878;8.036;2022-08-19T10:52:47;149437.56;;;26.00;52.00
28354;BME280;15603;50.878;8.036;2022-08-19T10:55:19;149436.31;;;26.00;51.81
28354;BME280;15603;50.878;8.036;2022-08-19T10:58:11;149404.34;;;25.86;52.37
28354;BME280;15603;50.878;8.036;2022-08-19T11:00:39;149334.44;;;25.57;52.01
28354;BME280;15603;50.878;8.036;2022-08-19T11:03:07;149309.91;;;25.47;53.31
28354;BME280;15603;50.878;8.036;2022-08-19T11:05:35;149312.34;;;25.48;53.99
28354;BME280;15603;50.878;8.036;2022-08-19T11:08:07;149376.13;;;25.75;54.67
28354;BME280;15603;50.878;8.036;2022-08-19T11:10:51;149437.56;;;26.00;52.12
28354;BME280;15603;50.878;8.036;2022-08-19T11:13:21;149475.59;;;26.16;51.41
28354;BME280;15603;50.878;8.036;2022-08-19T11:16:08;149538.16;;;26.42;53.11
28354;BME280;15603;50.878;8.036;2022-08-19T11:18:38;149581.19;;;26.60;53.68
28354;BME280;15603;50.878;8.036;2022-08-19T11:21:12;149541.84;;;26.44;52.13
28354;BME280;15603;50.878;8.036;2022-08-19T11:23:40;149481.72;;;26.19;48.96
28354;BME280;15603;50.878;8.036;2022-08-19T11:26:07;149529.59;;;26.39;49.38
28354;BME280;15603;50.878;8.036;2022-08-19T11:28:35;149563.94;;;26.53;49.45
28354;BME280;15603;50.878;8.036;2022-08-19T11:31:02;149581.19;;;26.60;49.56
28354;BME280;15603;50.878;8.036;2022-08-19T11:33:30;149561.50;;;26.52;49.52
28354;BME280;15603;50.878;8.036;2022-08-19T11:35:58;149518.53;;;26.34;49.84
28354;BME280;15603;50.878;8.036;2022-08-19T11:38:26;149427.75;;;25.96;51.92
28354;BME280;15603;50.878;8.036;2022-08-19T11:41:04;149415.47;;;25.91;53.02
28354;BME280;15603;50.878;8.036;2022-08-19T11:43:31;149412.94;;;25.90;52.05
28354;BME280;15603;50.878;8.036;2022-08-19T11:46:08;149393.31;;;25.82;50.10
28354;BME280;15603;50.878;8.036;2022-08-19T11:48:37;149467.00;;;26.13;49.71
28354;BME280;15603;50.878;8.036;2022-08-19T11:51:11;149563.94;;;26.53;48.96
28354;BME280;15603;50.878;8.036;2022-08-19T11:53:39;149647.47;;;26.88;49.67
28354;BME280;15603;50.878;8.036;2022-08-19T11:56:08;149626.63;;;26.79;47.46
28354;BME280;15603;50.878;8.036;2022-08-19T11:58:36;149716.22;;;27.17;46.81
28354;BME280;15603;50.878;8.036;2022-08-19T12:01:08;149645.03;;;26.87;47.01
28354;BME280;15603;50.878;8.036;2022-08-19T12:03:36;149643.75;;;26.87;46.58
28354;BME280;15603;50.878;8.036;2022-08-19T12:06:06;149494.00;;;26.24;47.27
28354;BME280;15603;50.878;8.036;2022-08-19T12:08:33;149573.75;;;26.57;48.46
28354;BME280;15603;50.878;8.036;2022-08-19T12:11:00;149560.25;;;26.52;47.35
28354;BME280;15603;50.878;8.036;2022-08-19T12:13:30;149616.81;;;26.75;47.25
28354;BME280;15603;50.878;8.036;2022-08-19T12:15:57;149636.44;;;26.83;46.86
28354;BME280;15603;50.878;8.036;2022-08-19T12:18:26;149732.19;;;27.23;46.27
28354;BME280;15603;50.878;8.036;2022-08-19T12:20:54;149788.72;;;27.47;45.63
28354;BME280;15603;50.878;8.036;2022-08-19T12:23:24;149766.59;;;27.38;47.06
28354;BME280;15603;50.878;8.036;2022-08-19T12:25:51;149821.88;;;27.61;46.58
28354;BME280;15603;50.878;8.036;2022-08-19T12:28:20;149835.38;;;27.67;46.18
28354;BME280;15603;50.878;8.036;2022-08-19T12:30:48;149753.09;;;27.32;45.49
28354;BME280;15603;50.878;8.036;2022-08-19T12:33:19;149758.00;;;27.34;46.15
28354;BME280;15603;50.878;8.036;2022-08-19T12:35:46;149734.69;;;27.25;45.87
28354;BME280;15603;50.878;8.036;2022-08-19T12:38:13;149753.09;;;27.32;45.57
28354;BME280;15603;50.878;8.036;2022-08-19T12:40:45;149808.34;;;27.55;45.38
28354;BME280;15603;50.878;8.036;2022-08-19T12:43:14;149802.22;;;27.53;44.28
28354;BME280;15603;50.878;8.036;2022-08-19T12:45:42;149820.66;;;27.60;44.76
28354;BME280;15603;50.878;8.036;2022-08-19T12:48:12;149855.03;;;27.75;45.10
28354;BME280;15603;50.878;8.036;2022-08-19T12:51:00;149928.75;;;28.06;43.78
28354;BME280;15603;50.878;8.036;2022-08-19T12:53:32;149898.09;;;27.93;44.22
28354;BME280;15603;50.878;8.036;2022-08-19T12:56:00;149874.69;;;27.83;43.41
28354;BME280;15603;50.878;8.036;2022-08-19T12:58:28;149920.16;;;28.02;43.25
28354;BME280;15603;50.878;8.036;2022-08-19T13:00:56;149857.50;;;27.76;43.51
28354;BME280;15603;50.878;8.036;2022-08-19T13:03:23;149857.50;;;27.76;42.93
28354;BME280;15603;50.878;8.036;2022-08-19T13:05:55;149828.00;;;27.64;43.25
28354;BME280;15603;50.878;8.036;2022-08-19T13:08:23;149864.84;;;27.79;44.12
28354;BME280;15603;50.878;8.036;2022-08-19T13:10:50;150007.38;;;28.38;42.92
28354;BME280;15603;50.878;8.036;2022-08-19T13:13:17;149958.28;;;28.18;42.58
28354;BME280;15603;50.878;8.036;2022-08-19T13:15:44;149884.53;;;27.87;41.76
28354;BME280;15603;50.878;8.036;2022-08-19T13:18:12;149857.50;;;27.76;42.38